sensor_id;sensor_type;location;lat;lon;timestamp;pressure;altitude;pressure_sealevel;temperature;humidity
19761;BME280;10039;42.632;23.408;2023-05-20T00:00:35;95290.09;;;14.74;70.84
19761;BME280;10039;42.632;23.408;2023-05-20T00:03:00;95292.75;;;14.62;71.38
19761;BME280;10039;42.632;23.408;2023-05-20T00:05:26;95296.75;;;14.57;71.85
19761;BME280;10039;42.632;23.408;2023-05-20T00:07:51;95263.72;;;14.32;72.02
19761;BME280;10039;42.632;23.408;2023-05-20T00:10:17;95299.16;;;14.40;71.92
19761;BME280;10039;42.632;23.408;2023-05-20T00:12:42;95274.78;;;14.34;71.62
19761;BME280;10039;42.632;23.408;2023-05-20T00:15:08;95280.13;;;14.22;71.80
19761;BME280;10039;42.632;23.408;2023-05-20T00:17:36;95302.25;;;14.26;72.25
19761;BME280;10039;42.632;23.408;2023-05-20T00:20:01;95300.53;;;14.03;72.82
19761;BME280;10039;42.632;23.408;2023-05-20T00:22:29;95298.19;;;14.05;73.16
19761;BME280;10039;42.632;23.408;2023-05-20T00:24:54;95306.75;;;14.00;72.93
19761;BME280;10039;42.632;23.408;2023-05-20T00:27:20;95280.75;;;13.97;73.37
19761;BME280;10039;42.632;23.408;2023-05-20T00:29:45;95288.63;;;14.04;72.88
19761;BME280;10039;42.632;23.408;2023-05-20T00:32:11;95290.31;;;14.14;72.65
19761;BME280;10039;42.632;23.408;2023-05-20T00:34:36;95283.31;;;14.17;72.66
19761;BME280;10039;42.632;23.408;2023-05-20T00:37:02;95279.63;;;14.11;72.63
19761;BME280;10039;42.632;23.408;2023-05-20T00:39:27;95293.63;;;14.18;72.26
19761;BME280;10039;42.632;23.408;2023-05-20T00:41:54;95282.28;;;14.27;72.06
19761;BME280;10039;42.632;23.408;2023-05-20T00:44:21;95275.84;;;14.37;72.01
19761;BME280;10039;42.632;23.408;2023-05-20T00:46:49;95264.59;;;14.01;72.62
19761;BME280;10039;42.632;23.408;2023-05-20T00:49:14;95257.41;;;13.53;73.29
19761;BME280;10039;42.632;23.408;2023-05-20T00:51:40;95254.88;;;13.62;74.17
19761;BME280;10039;42.632;23.408;2023-05-20T00:54:05;95248.38;;;13.47;74.82
19761;BME280;10039;42.632;23.408;2023-05-20T00:56:31;95261.00;;;13.47;74.82
19761;BME280;10039;42.632;23.408;2023-05-20T00:58:56;95265.19;;;13.48;74.55
19761;BME280;10039;42.632;23.408;2023-05-20T01:01:22;95255.91;;;13.52;74.71
19761;BME280;10039;42.632;23.408;2023-05-20T01:03:47;95265.59;;;13.62;74.15
19761;BME280;10039;42.632;23.408;2023-05-20T01:06:13;95258.22;;;13.66;73.79
19761;BME280;10039;42.632;23.408;2023-05-20T01:08:38;95266.50;;;13.72;73.69
19761;BME280;10039;42.632;23.408;2023-05-20T01:11:10;95266.19;;;13.70;73.79
19761;BME280;10039;42.632;23.408;2023-05-20T01:13:53;95272.44;;;13.79;72.77
19761;BME280;10039;42.632;23.408;2023-05-20T01:16:20;95281.16;;;13.83;72.67
19761;BME280;10039;42.632;23.408;2023-05-20T01:18:50;95284.53;;;13.71;73.09
19761;BME280;10039;42.632;23.408;2023-05-20T01:21:19;95263.16;;;13.68;73.22
19761;BME280;10039;42.632;23.408;2023-05-20T01:23:46;95286.03;;;13.72;72.68
19761;BME280;10039;42.632;23.408;2023-05-20T01:26:12;95282.06;;;13.77;72.76
19761;BME280;10039;42.632;23.408;2023-05-20T01:28:38;95282.13;;;13.89;72.72
19761;BME280;10039;42.632;23.408;2023-05-20T01:31:05;95275.41;;;13.97;71.81
19761;BME280;10039;42.632;23.408;2023-05-20T01:33:35;95271.66;;;13.95;71.90
19761;BME280;10039;42.632;23.408;2023-05-20T01:36:02;95259.09;;;13.76;71.97
19761;BME280;10039;42.632;23.408;2023-05-20T01:38:28;95281.50;;;13.69;72.28
19761;BME280;10039;42.632;23.408;2023-05-20T01:40:55;95274.59;;;13.56;73.25
19761;BME280;10039;42.632;23.408;2023-05-20T01:43:21;95276.50;;;13.55;73.53
19761;BME280;10039;42.632;23.408;2023-05-20T01:45:47;95240.72;;;13.18;73.24
19761;BME280;10039;42.632;23.408;2023-05-20T01:48:12;95261.47;;;13.14;73.57
19761;BME280;10039;42.632;23.408;2023-05-20T01:50:38;95229.59;;;13.03;74.06
19761;BME280;10039;42.632;23.408;2023-05-20T01:53:04;95274.53;;;13.43;74.01
19761;BME280;10039;42.632;23.408;2023-05-20T01:55:32;95269.16;;;13.43;74.01
19761;BME280;10039;42.632;23.408;2023-05-20T01:57:57;95269.00;;;13.50;73.34
19761;BME280;10039;42.632;23.408;2023-05-20T02:00:23;95270.16;;;13.49;73.26
19761;BME280;10039;42.632;23.408;2023-05-20T02:02:49;95279.38;;;13.48;72.90
19761;BME280;10039;42.632;23.408;2023-05-20T02:05:15;95268.50;;;13.40;73.57
19761;BME280;10039;42.632;23.408;2023-05-20T02:07:40;95265.31;;;13.44;73.42
19761;BME280;10039;42.632;23.408;2023-05-20T02:10:06;95253.91;;;13.41;73.12
19761;BME280;10039;42.632;23.408;2023-05-20T02:12:31;95259.88;;;13.16;73.54
19761;BME280;10039;42.632;23.408;2023-05-20T02:14:57;95265.91;;;13.04;74.42
19761;BME280;10039;42.632;23.408;2023-05-20T02:17:22;95248.22;;;12.91;74.52
19761;BME280;10039;42.632;23.408;2023-05-20T02:19:48;95257.75;;;12.76;75.52
19761;BME280;10039;42.632;23.408;2023-05-20T02:22:13;95249.84;;;12.53;76.21
19761;BME280;10039;42.632;23.408;2023-05-20T02:24:39;95267.09;;;12.68;76.56
19761;BME280;10039;42.632;23.408;2023-05-20T02:27:04;95255.25;;;12.49;76.92
19761;BME280;10039;42.632;23.408;2023-05-20T02:29:31;95263.03;;;12.44;76.77
19761;BME280;10039;42.632;23.408;2023-05-20T02:31:57;95232.13;;;12.24;77.03
19761;BME280;10039;42.632;23.408;2023-05-20T02:34:22;95254.78;;;12.19;78.54
19761;BME280;10039;42.632;23.408;2023-05-20T02:36:50;95251.41;;;12.15;78.90
19761;BME280;10039;42.632;23.408;2023-05-20T02:39:15;95251.22;;;12.06;79.14
19761;BME280;10039;42.632;23.408;2023-05-20T02:41:41;95249.47;;;12.16;79.26
19761;BME280;10039;42.632;23.408;2023-05-20T02:44:06;95252.28;;;12.28;78.90
19761;BME280;10039;42.632;23.408;2023-05-20T02:46:33;95257.81;;;12.37;77.96
19761;BME280;10039;42.632;23.408;2023-05-20T02:48:58;95243.41;;;12.31;77.42
19761;BME280;10039;42.632;23.408;2023-05-20T02:51:24;95241.91;;;12.30;77.53
19761;BME280;10039;42.632;23.408;2023-05-20T02:53:50;95252.00;;;12.42;77.48
19761;BME280;10039;42.632;23.408;2023-05-20T02:56:15;95252.56;;;12.33;77.31
19761;BME280;10039;42.632;23.408;2023-05-20T02:58:40;95250.13;;;12.39;77.92
19761;BME280;10039;42.632;23.408;2023-05-20T03:01:06;95252.47;;;12.37;77.50
19761;BME280;10039;42.632;23.408;2023-05-20T03:03:32;95249.31;;;12.42;77.18
19761;BME280;10039;42.632;23.408;2023-05-20T03:05:57;95245.81;;;12.45;77.16
19761;BME280;10039;42.632;23.408;2023-05-20T03:08:23;95250.19;;;12.55;76.71
19761;BME280;10039;42.632;23.408;2023-05-20T03:10:48;95264.91;;;12.63;76.81
19761;BME280;10039;42.632;23.408;2023-05-20T03:13:14;95267.25;;;12.61;76.06
19761;BME280;10039;42.632;23.408;2023-05-20T03:15:41;95242.22;;;12.51;76.20
19761;BME280;10039;42.632;23.408;2023-05-20T03:18:06;95260.31;;;12.63;75.96
19761;BME280;10039;42.632;23.408;2023-05-20T03:20:35;95261.75;;;12.68;75.73
19761;BME280;10039;42.632;23.408;2023-05-20T03:23:04;95260.91;;;12.55;75.74
19761;BME280;10039;42.632;23.408;2023-05-20T03:25:30;95244.41;;;12.21;76.31
19761;BME280;10039;42.632;23.408;2023-05-20T03:27:55;95269.34;;;12.34;76.50
19761;BME280;10039;42.632;23.408;2023-05-20T03:30:23;95273.25;;;12.49;76.65
19761;BME280;10039;42.632;23.408;2023-05-20T03:32:49;95268.84;;;12.58;76.55
19761;BME280;10039;42.632;23.408;2023-05-20T03:35:14;95259.72;;;12.56;75.92
19761;BME280;10039;42.632;23.408;2023-05-20T03:37:40;95284.75;;;12.65;75.82
19761;BME280;10039;42.632;23.408;2023-05-20T03:40:07;95282.66;;;12.57;76.28
19761;BME280;10039;42.632;23.408;2023-05-20T03:42:35;95275.97;;;12.65;76.43
19761;BME280;10039;42.632;23.408;2023-05-20T03:45:00;95289.69;;;12.67;76.20
19761;BME280;10039;42.632;23.408;2023-05-20T03:47:26;95282.91;;;12.62;76.39
19761;BME280;10039;42.632;23.408;2023-05-20T03:49:52;95293.25;;;12.80;76.14
19761;BME280;10039;42.632;23.408;2023-05-20T03:52:18;95268.69;;;12.65;75.85
19761;BME280;10039;42.632;23.408;2023-05-20T03:54:43;95267.63;;;12.43;75.88
19761;BME280;10039;42.632;23.408;2023-05-20T03:57:09;95298.50;;;12.67;76.79
19761;BME280;10039;42.632;23.408;2023-05-20T03:59:35;95299.56;;;12.70;76.28
19761;BME280;10039;42.632;23.408;2023-05-20T04:02:01;95312.66;;;12.84;75.82
19761;BME280;10039;42.632;23.408;2023-05-20T04:04:27;95313.00;;;12.86;76.64
19761;BME280;10039;42.632;23.408;2023-05-20T04:06:53;95313.97;;;12.95;76.38
19761;BME280;10039;42.632;23.408;2023-05-20T04:09:18;95304.59;;;13.03;76.14
19761;BME280;10039;42.632;23.408;2023-05-20T04:11:44;95311.28;;;13.11;75.74
19761;BME280;10039;42.632;23.408;2023-05-20T04:14:10;95308.78;;;13.20;75.60
19761;BME280;10039;42.632;23.408;2023-05-20T04:16:35;95306.69;;;13.12;75.35
19761;BME280;10039;42.632;23.408;2023-05-20T04:19:02;95309.72;;;13.14;75.94
19761;BME280;10039;42.632;23.408;2023-05-20T04:21:27;95295.94;;;12.96;76.19
19761;BME280;10039;42.632;23.408;2023-05-20T04:23:53;95263.41;;;12.97;76.29
19761;BME280;10039;42.632;23.408;2023-05-20T04:26:18;95320.25;;;13.37;76.35
19761;BME280;10039;42.632;23.408;2023-05-20T04:28:45;95287.25;;;13.40;75.69
19761;BME280;10039;42.632;23.408;2023-05-20T04:31:13;95309.63;;;13.65;75.92
19761;BME280;10039;42.632;23.408;2023-05-20T04:33:38;95310.00;;;13.63;75.84
19761;BME280;10039;42.632;23.408;2023-05-20T04:36:09;95285.91;;;13.47;75.95
19761;BME280;10039;42.632;23.408;2023-05-20T04:38:36;95301.75;;;13.86;74.89
19761;BME280;10039;42.632;23.408;2023-05-20T04:41:02;95278.22;;;13.78;74.33
19761;BME280;10039;42.632;23.408;2023-05-20T04:43:28;95313.09;;;14.22;73.18
19761;BME280;10039;42.632;23.408;2023-05-20T04:45:56;95318.06;;;14.36;72.48
19761;BME280;10039;42.632;23.408;2023-05-20T04:48:22;95296.94;;;14.51;71.26
19761;BME280;10039;42.632;23.408;2023-05-20T04:50:48;95305.16;;;14.72;71.10
19761;BME280;10039;42.632;23.408;2023-05-20T04:53:17;95319.66;;;14.87;69.87
19761;BME280;10039;42.632;23.408;2023-05-20T04:55:44;95322.34;;;14.99;69.74
19761;BME280;10039;42.632;23.408;2023-05-20T04:58:10;95312.25;;;15.03;69.57
19761;BME280;10039;42.632;23.408;2023-05-20T05:00:45;95319.13;;;15.17;69.06
19761;BME280;10039;42.632;23.408;2023-05-20T05:03:11;95323.00;;;15.16;70.20
19761;BME280;10039;42.632;23.408;2023-05-20T05:05:38;95312.69;;;15.14;70.88
19761;BME280;10039;42.632;23.408;2023-05-20T05:08:04;95307.09;;;15.21;71.08
19761;BME280;10039;42.632;23.408;2023-05-20T05:10:33;95319.47;;;15.44;70.84
19761;BME280;10039;42.632;23.408;2023-05-20T05:12:58;95305.75;;;15.63;69.91
19761;BME280;10039;42.632;23.408;2023-05-20T05:15:24;95312.63;;;15.76;69.07
19761;BME280;10039;42.632;23.408;2023-05-20T05:17:50;95316.78;;;15.90;69.12
19761;BME280;10039;42.632;23.408;2023-05-20T05:20:16;95312.34;;;16.17;68.94
19761;BME280;10039;42.632;23.408;2023-05-20T05:22:41;95308.53;;;16.27;68.49
19761;BME280;10039;42.632;23.408;2023-05-20T05:25:11;95316.25;;;16.59;67.12
19761;BME280;10039;42.632;23.408;2023-05-20T05:27:36;95309.19;;;16.53;66.50
19761;BME280;10039;42.632;23.408;2023-05-20T05:30:03;95310.25;;;16.55;67.10
19761;BME280;10039;42.632;23.408;2023-05-20T05:32:30;95303.53;;;16.60;65.86
19761;BME280;10039;42.632;23.408;2023-05-20T05:34:56;95291.19;;;16.71;65.93
19761;BME280;10039;42.632;23.408;2023-05-20T05:37:21;95286.75;;;16.86;65.32
19761;BME280;10039;42.632;23.408;2023-05-20T05:39:47;95281.09;;;16.93;64.89
19761;BME280;10039;42.632;23.408;2023-05-20T05:42:12;95294.31;;;17.09;64.74
19761;BME280;10039;42.632;23.408;2023-05-20T05:44:38;95278.50;;;17.20;64.00
19761;BME280;10039;42.632;23.408;2023-05-20T05:47:04;95298.69;;;17.55;63.72
19761;BME280;10039;42.632;23.408;2023-05-20T05:49:31;95303.50;;;17.69;62.70
19761;BME280;10039;42.632;23.408;2023-05-20T05:51:56;95304.59;;;17.89;61.80
19761;BME280;10039;42.632;23.408;2023-05-20T05:54:22;95302.03;;;18.03;61.49
19761;BME280;10039;42.632;23.408;2023-05-20T05:56:47;95284.94;;;18.15;61.17
19761;BME280;10039;42.632;23.408;2023-05-20T05:59:14;95296.34;;;18.37;61.42
19761;BME280;10039;42.632;23.408;2023-05-20T06:01:40;95289.44;;;18.54;61.04
19761;BME280;10039;42.632;23.408;2023-05-20T06:04:05;95287.44;;;18.73;60.42
19761;BME280;10039;42.632;23.408;2023-05-20T06:06:31;95263.41;;;18.75;60.00
19761;BME280;10039;42.632;23.408;2023-05-20T06:08:56;95278.44;;;18.76;59.14
19761;BME280;10039;42.632;23.408;2023-05-20T06:11:22;95274.63;;;18.82;59.41
19761;BME280;10039;42.632;23.408;2023-05-20T06:13:48;95260.31;;;19.00;58.58
19761;BME280;10039;42.632;23.408;2023-05-20T06:16:14;95262.44;;;19.28;59.58
19761;BME280;10039;42.632;23.408;2023-05-20T06:18:40;95265.31;;;19.57;58.33
19761;BME280;10039;42.632;23.408;2023-05-20T06:21:06;95273.28;;;19.75;57.23
19761;BME280;10039;42.632;23.408;2023-05-20T06:23:31;95269.13;;;19.88;56.95
19761;BME280;10039;42.632;23.408;2023-05-20T06:25:58;95268.91;;;20.01;57.56
19761;BME280;10039;42.632;23.408;2023-05-20T06:28:24;95265.41;;;20.24;56.51
19761;BME280;10039;42.632;23.408;2023-05-20T06:30:49;95250.28;;;20.32;56.81
19761;BME280;10039;42.632;23.408;2023-05-20T06:33:17;95263.56;;;20.58;54.67
19761;BME280;10039;42.632;23.408;2023-05-20T06:35:43;95252.81;;;20.49;54.74
19761;BME280;10039;42.632;23.408;2023-05-20T06:38:09;95258.13;;;20.73;54.75
19761;BME280;10039;42.632;23.408;2023-05-20T06:40:34;95227.47;;;20.67;54.00
19761;BME280;10039;42.632;23.408;2023-05-20T06:43:00;95243.09;;;20.86;53.04
19761;BME280;10039;42.632;23.408;2023-05-20T06:45:25;95211.56;;;20.89;52.08
19761;BME280;10039;42.632;23.408;2023-05-20T06:47:51;95246.34;;;20.90;51.28
19761;BME280;10039;42.632;23.408;2023-05-20T06:50:18;95215.13;;;20.23;49.73
19761;BME280;10039;42.632;23.408;2023-05-20T06:52:43;95244.13;;;20.60;50.72
19761;BME280;10039;42.632;23.408;2023-05-20T06:55:09;95250.41;;;20.80;51.01
19761;BME280;10039;42.632;23.408;2023-05-20T06:57:35;95253.72;;;21.04;51.55
19761;BME280;10039;42.632;23.408;2023-05-20T07:00:02;95249.69;;;21.14;50.17
19761;BME280;10039;42.632;23.408;2023-05-20T07:02:27;95251.91;;;21.30;51.17
19761;BME280;10039;42.632;23.408;2023-05-20T07:04:53;95248.78;;;21.57;51.11
19761;BME280;10039;42.632;23.408;2023-05-20T07:07:18;95246.75;;;21.52;50.66
19761;BME280;10039;42.632;23.408;2023-05-20T07:09:44;95244.09;;;21.72;50.38
19761;BME280;10039;42.632;23.408;2023-05-20T07:12:09;95245.72;;;21.64;48.45
19761;BME280;10039;42.632;23.408;2023-05-20T07:14:35;95240.56;;;21.66;50.89
19761;BME280;10039;42.632;23.408;2023-05-20T07:17:00;95239.94;;;21.96;49.53
19761;BME280;10039;42.632;23.408;2023-05-20T07:19:25;95243.22;;;22.26;47.81
19761;BME280;10039;42.632;23.408;2023-05-20T07:21:51;95234.50;;;21.96;49.24
19761;BME280;10039;42.632;23.408;2023-05-20T07:24:16;95231.97;;;22.13;48.01
19761;BME280;10039;42.632;23.408;2023-05-20T07:26:42;95234.78;;;22.24;48.43
19761;BME280;10039;42.632;23.408;2023-05-20T07:29:08;95213.53;;;22.48;49.13
19761;BME280;10039;42.632;23.408;2023-05-20T07:31:34;95236.97;;;22.40;47.90
19761;BME280;10039;42.632;23.408;2023-05-20T07:34:00;95232.66;;;22.33;48.60
19761;BME280;10039;42.632;23.408;2023-05-20T07:36:26;95241.00;;;22.50;49.13
19761;BME280;10039;42.632;23.408;2023-05-20T07:38:52;95239.47;;;22.43;48.89
19761;BME280;10039;42.632;23.408;2023-05-20T07:41:17;95235.94;;;22.63;48.14
19761;BME280;10039;42.632;23.408;2023-05-20T07:43:44;95232.41;;;22.57;49.30
19761;BME280;10039;42.632;23.408;2023-05-20T07:46:10;95229.00;;;22.92;47.27
19761;BME280;10039;42.632;23.408;2023-05-20T07:48:35;95235.66;;;23.17;47.55
19761;BME280;10039;42.632;23.408;2023-05-20T07:51:01;95231.84;;;23.45;47.89
19761;BME280;10039;42.632;23.408;2023-05-20T07:53:26;95232.50;;;23.71;46.68
19761;BME280;10039;42.632;23.408;2023-05-20T07:55:51;95229.50;;;23.69;46.19
19761;BME280;10039;42.632;23.408;2023-05-20T07:58:17;95228.53;;;23.72;45.73
19761;BME280;10039;42.632;23.408;2023-05-20T08:00:43;95220.69;;;23.90;45.28
19761;BME280;10039;42.632;23.408;2023-05-20T08:03:09;95192.69;;;23.90;45.77
19761;BME280;10039;42.632;23.408;2023-05-20T08:05:37;95221.72;;;23.98;45.58
19761;BME280;10039;42.632;23.408;2023-05-20T08:08:03;95218.00;;;24.01;45.49
19761;BME280;10039;42.632;23.408;2023-05-20T08:10:29;95233.06;;;23.86;44.45
19761;BME280;10039;42.632;23.408;2023-05-20T08:12:55;95212.19;;;23.72;44.54
19761;BME280;10039;42.632;23.408;2023-05-20T08:15:21;95198.75;;;23.63;45.06
19761;BME280;10039;42.632;23.408;2023-05-20T08:17:46;95212.19;;;23.72;45.25
19761;BME280;10039;42.632;23.408;2023-05-20T08:20:12;95220.34;;;23.72;46.25
19761;BME280;10039;42.632;23.408;2023-05-20T08:22:39;95215.53;;;23.98;44.57
19761;BME280;10039;42.632;23.408;2023-05-20T08:25:08;95223.31;;;23.74;43.71
19761;BME280;10039;42.632;23.408;2023-05-20T08:27:34;95201.31;;;23.83;46.12
19761;BME280;10039;42.632;23.408;2023-05-20T08:30:00;95207.81;;;23.96;44.37
19761;BME280;10039;42.632;23.408;2023-05-20T08:32:26;95211.72;;;23.79;45.13
19761;BME280;10039;42.632;23.408;2023-05-20T08:34:51;95217.28;;;24.01;44.66
19761;BME280;10039;42.632;23.408;2023-05-20T08:37:17;95192.47;;;24.10;44.00
19761;BME280;10039;42.632;23.408;2023-05-20T08:39:42;95209.69;;;23.74;43.81
19761;BME280;10039;42.632;23.408;2023-05-20T08:42:10;95201.72;;;24.40;45.12
19761;BME280;10039;42.632;23.408;2023-05-20T08:44:37;95211.38;;;24.30;42.48
19761;BME280;10039;42.632;23.408;2023-05-20T08:47:04;95205.84;;;24.02;44.64
19761;BME280;10039;42.632;23.408;2023-05-20T08:49:30;95207.16;;;24.34;44.77
19761;BME280;10039;42.632;23.408;2023-05-20T08:51:56;95213.69;;;24.75;43.26
19761;BME280;10039;42.632;23.408;2023-05-20T08:54:23;95178.19;;;24.48;42.77
19761;BME280;10039;42.632;23.408;2023-05-20T08:56:50;95204.25;;;24.93;43.75
19761;BME280;10039;42.632;23.408;2023-05-20T08:59:18;95204.00;;;24.69;43.59
19761;BME280;10039;42.632;23.408;2023-05-20T09:01:44;95210.41;;;24.44;41.93
19761;BME280;10039;42.632;23.408;2023-05-20T09:04:09;95204.94;;;24.44;43.66
19761;BME280;10039;42.632;23.408;2023-05-20T09:06:42;95205.75;;;24.83;42.58
19761;BME280;10039;42.632;23.408;2023-05-20T09:09:10;95187.13;;;24.81;43.03
19761;BME280;10039;42.632;23.408;2023-05-20T09:11:36;95174.66;;;25.07;43.69
19761;BME280;10039;42.632;23.408;2023-05-20T09:14:01;95179.53;;;25.58;42.71
19761;BME280;10039;42.632;23.408;2023-05-20T09:16:27;95181.03;;;25.54;41.24
19761;BME280;10039;42.632;23.408;2023-05-20T09:18:56;95181.63;;;25.19;41.50
19761;BME280;10039;42.632;23.408;2023-05-20T09:21:28;95173.22;;;24.96;42.13
19761;BME280;10039;42.632;23.408;2023-05-20T09:23:53;95175.66;;;25.04;42.15
19761;BME280;10039;42.632;23.408;2023-05-20T09:26:22;95173.44;;;25.08;41.28
19761;BME280;10039;42.632;23.408;2023-05-20T09:28:48;95179.41;;;25.07;42.35
19761;BME280;10039;42.632;23.408;2023-05-20T09:31:15;95180.41;;;25.20;41.40
19761;BME280;10039;42.632;23.408;2023-05-20T09:33:41;95169.50;;;24.66;41.49
19761;BME280;10039;42.632;23.408;2023-05-20T09:36:07;95176.09;;;24.10;42.21
19761;BME280;10039;42.632;23.408;2023-05-20T09:38:36;95129.25;;;24.11;42.97
19761;BME280;10039;42.632;23.408;2023-05-20T09:41:11;95150.41;;;24.66;42.46
19761;BME280;10039;42.632;23.408;2023-05-20T09:43:38;95155.09;;;24.82;42.24
19761;BME280;10039;42.632;23.408;2023-05-20T09:46:04;95155.31;;;24.40;42.58
19761;BME280;10039;42.632;23.408;2023-05-20T09:48:31;95154.09;;;24.57;42.76
19761;BME280;10039;42.632;23.408;2023-05-20T09:50:57;95143.16;;;24.74;41.25
19761;BME280;10039;42.632;23.408;2023-05-20T09:53:25;95138.97;;;24.67;42.09
19761;BME280;10039;42.632;23.408;2023-05-20T09:55:52;95152.13;;;24.58;41.94
19761;BME280;10039;42.632;23.408;2023-05-20T09:58:19;95141.97;;;24.64;41.78
19761;BME280;10039;42.632;23.408;2023-05-20T10:00:45;95113.59;;;24.12;43.16
19761;BME280;10039;42.632;23.408;2023-05-20T10:03:11;95128.03;;;24.29;42.56
19761;BME280;10039;42.632;23.408;2023-05-20T10:05:46;95128.00;;;24.40;42.58
19761;BME280;10039;42.632;23.408;2023-05-20T10:13:54;95125.31;;;24.51;42.60
19761;BME280;10039;42.632;23.408;2023-05-20T10:16:45;95122.31;;;24.05;41.67
19761;BME280;10039;42.632;23.408;2023-05-20T10:19:28;95118.09;;;24.04;41.65
19761;BME280;10039;42.632;23.408;2023-05-20T10:22:07;95110.34;;;23.81;42.94
19761;BME280;10039;42.632;23.408;2023-05-20T10:24:35;95100.97;;;23.98;42.10
19761;BME280;10039;42.632;23.408;2023-05-20T10:27:03;95110.91;;;24.17;42.02
19761;BME280;10039;42.632;23.408;2023-05-20T10:29:40;95114.63;;;24.14;42.57
19761;BME280;10039;42.632;23.408;2023-05-20T10:32:06;95122.03;;;24.14;42.70
19761;BME280;10039;42.632;23.408;2023-05-20T10:34:43;95078.16;;;24.01;40.07
19761;BME280;10039;42.632;23.408;2023-05-20T10:37:23;95113.09;;;23.91;41.67
19761;BME280;10039;42.632;23.408;2023-05-20T10:39:50;95096.34;;;23.40;41.44
19761;BME280;10039;42.632;23.408;2023-05-20T10:42:15;95082.66;;;23.29;42.65
19761;BME280;10039;42.632;23.408;2023-05-20T10:44:45;95076.75;;;23.36;42.35
19761;BME280;10039;42.632;23.408;2023-05-20T10:47:11;95078.03;;;23.57;42.57
19761;BME280;10039;42.632;23.408;2023-05-20T10:49:43;95089.66;;;23.41;41.60
19761;BME280;10039;42.632;23.408;2023-05-20T10:52:10;95077.41;;;23.89;42.23
19761;BME280;10039;42.632;23.408;2023-05-20T10:54:42;95072.44;;;23.99;43.00
19761;BME280;10039;42.632;23.408;2023-05-20T10:57:08;95077.41;;;24.06;41.59
19761;BME280;10039;42.632;23.408;2023-05-20T10:59:36;95082.13;;;24.05;41.26
19761;BME280;10039;42.632;23.408;2023-05-20T11:02:02;95078.16;;;24.01;40.96
19761;BME280;10039;42.632;23.408;2023-05-20T11:04:28;95087.31;;;23.82;41.23
19761;BME280;10039;42.632;23.408;2023-05-20T11:06:54;95073.69;;;24.09;40.63
19761;BME280;10039;42.632;23.408;2023-05-20T11:09:20;95078.16;;;24.23;40.32
19761;BME280;10039;42.632;23.408;2023-05-20T11:11:46;95060.28;;;24.05;41.07
19761;BME280;10039;42.632;23.408;2023-05-20T11:14:12;95057.72;;;23.58;41.37
19761;BME280;10039;42.632;23.408;2023-05-20T11:16:40;95031.97;;;23.54;42.09
19761;BME280;10039;42.632;23.408;2023-05-20T11:19:07;95055.03;;;23.69;41.68
19761;BME280;10039;42.632;23.408;2023-05-20T11:21:32;95065.53;;;23.23;43.06
19761;BME280;10039;42.632;23.408;2023-05-20T11:23:58;95055.25;;;23.66;43.02
19761;BME280;10039;42.632;23.408;2023-05-20T11:26:23;95045.66;;;23.92;42.22
19761;BME280;10039;42.632;23.408;2023-05-20T11:28:49;95057.97;;;23.60;41.66
19761;BME280;10039;42.632;23.408;2023-05-20T11:31:14;95032.38;;;23.25;42.24
19761;BME280;10039;42.632;23.408;2023-05-20T11:33:42;95036.69;;;23.70;41.94
19761;BME280;10039;42.632;23.408;2023-05-20T11:36:08;95043.16;;;23.83;42.79
19761;BME280;10039;42.632;23.408;2023-05-20T11:38:33;95047.38;;;23.79;42.53
19761;BME280;10039;42.632;23.408;2023-05-20T11:40:59;95035.25;;;23.85;42.29
19761;BME280;10039;42.632;23.408;2023-05-20T11:43:24;95021.84;;;23.82;42.25
19761;BME280;10039;42.632;23.408;2023-05-20T11:45:54;95041.69;;;23.93;42.77
19761;BME280;10039;42.632;23.408;2023-05-20T11:48:21;95043.34;;;23.52;42.87
19761;BME280;10039;42.632;23.408;2023-05-20T11:50:47;95016.78;;;23.31;44.14
19761;BME280;10039;42.632;23.408;2023-05-20T11:53:20;95043.31;;;23.41;43.34
19761;BME280;10039;42.632;23.408;2023-05-20T11:58:15;95043.81;;;23.40;43.91
19761;BME280;10039;42.632;23.408;2023-05-20T12:00:41;95040.59;;;23.41;43.85
19761;BME280;10039;42.632;23.408;2023-05-20T12:03:06;95033.66;;;23.46;44.13
19761;BME280;10039;42.632;23.408;2023-05-20T12:05:32;95039.13;;;23.51;44.48
19761;BME280;10039;42.632;23.408;2023-05-20T12:07:57;95025.78;;;23.64;45.05
19761;BME280;10039;42.632;23.408;2023-05-20T12:10:22;95027.75;;;23.58;42.91
19761;BME280;10039;42.632;23.408;2023-05-20T12:12:48;95012.56;;;23.30;44.02
19761;BME280;10039;42.632;23.408;2023-05-20T12:15:13;95039.38;;;23.48;45.44
19761;BME280;10039;42.632;23.408;2023-05-20T12:17:50;95091.63;;;23.46;44.80
19761;BME280;10039;42.632;23.408;2023-05-20T12:20:18;95071.47;;;22.38;44.69
19761;BME280;10039;42.632;23.408;2023-05-20T12:22:44;95090.75;;;22.09;46.47
19761;BME280;10039;42.632;23.408;2023-05-20T12:25:11;95085.34;;;21.39;46.79
19761;BME280;10039;42.632;23.408;2023-05-20T12:27:37;95089.25;;;21.12;48.88
19761;BME280;10039;42.632;23.408;2023-05-20T12:30:03;95106.41;;;20.69;50.74
19761;BME280;10039;42.632;23.408;2023-05-20T12:32:29;95112.81;;;20.52;51.16
19761;BME280;10039;42.632;23.408;2023-05-20T12:34:54;95099.84;;;20.27;52.96
19761;BME280;10039;42.632;23.408;2023-05-20T12:37:20;95105.19;;;20.36;53.31
19761;BME280;10039;42.632;23.408;2023-05-20T12:39:46;95101.97;;;20.37;53.38
19761;BME280;10039;42.632;23.408;2023-05-20T12:42:11;95094.13;;;20.39;54.20
19761;BME280;10039;42.632;23.408;2023-05-20T12:44:37;95090.91;;;20.55;53.76
19761;BME280;10039;42.632;23.408;2023-05-20T12:47:10;95061.47;;;20.48;52.24
19761;BME280;10039;42.632;23.408;2023-05-20T12:49:35;95094.59;;;20.87;52.89
19761;BME280;10039;42.632;23.408;2023-05-20T12:52:01;95082.09;;;21.15;51.39
19761;BME280;10039;42.632;23.408;2023-05-20T12:54:26;95090.56;;;21.42;50.77